sensor_id;sensor_type;location;lat;lon;timestamp;temperature;humidity
78704;SHT31;68034;51.966;5.676;2023-06-10T00:01:31;25.3;43.1
78704;SHT31;68034;51.966;5.676;2023-06-10T00:04:00;25.3;43.0
78704;SHT31;68034;51.966;5.676;2023-06-10T00:06:29;25.2;43.9
78704;SHT31;68034;51.966;5.676;2023-06-10T00:09:02;25.1;43.7
78704;SHT31;68034;51.966;5.676;2023-06-10T00:11:36;25.1;42.9
78704;SHT31;68034;51.966;5.676;2023-06-10T00:14:06;25.0;42.9
78704;SHT31;68034;51.966;5.676;2023-06-10T00:16:35;25.0;44.1
78704;SHT31;68034;51.966;5.676;2023-06-10T00:19:05;24.9;43.1
78704;SHT31;68034;51.966;5.676;2023-06-10T00:21:35;24.9;44.3
78704;SHT31;68034;51.966;5.676;2023-06-10T00:24:08;24.8;44.0
78704;SHT31;68034;51.966;5.676;2023-06-10T00:26:40;24.8;43.8
78704;SHT31;68034;51.966;5.676;2023-06-10T00:29:09;24.8;43.8
78704;SHT31;68034;51.966;5.676;2023-06-10T00:31:38;24.7;44.9
78704;SHT31;68034;51.966;5.676;2023-06-10T00:34:08;24.7;43.9
78704;SHT31;68034;51.966;5.676;2023-06-10T00:36:36;24.6;44.8
78704;SHT31;68034;51.966;5.676;2023-06-10T00:39:05;24.6;44.4
78704;SHT31;68034;51.966;5.676;2023-06-10T00:41:34;24.6;45.2
78704;SHT31;68034;51.966;5.676;2023-06-10T00:44:03;24.5;45.1
78704;SHT31;68034;51.966;5.676;2023-06-10T00:46:32;24.5;44.4
78704;SHT31;68034;51.966;5.676;2023-06-10T00:49:01;24.5;45.1
78704;SHT31;68034;51.966;5.676;2023-06-10T00:51:30;24.4;44.6
78704;SHT31;68034;51.966;5.676;2023-06-10T00:54:00;24.4;44.5
78704;SHT31;68034;51.966;5.676;2023-06-10T00:56:30;24.4;44.7
78704;SHT31;68034;51.966;5.676;2023-06-10T00:59:01;24.3;44.6
78704;SHT31;68034;51.966;5.676;2023-06-10T01:01:30;24.3;44.3
78704;SHT31;68034;51.966;5.676;2023-06-10T01:04:00;24.2;44.7
78704;SHT31;68034;51.966;5.676;2023-06-10T01:06:39;24.2;44.9
78704;SHT31;68034;51.966;5.676;2023-06-10T01:09:20;24.1;44.3
78704;SHT31;68034;51.966;5.676;2023-06-10T01:12:04;24.1;44.6
78704;SHT31;68034;51.966;5.676;2023-06-10T01:14:41;24.1;45.0
78704;SHT31;68034;51.966;5.676;2023-06-10T01:17:14;24.2;44.8
78704;SHT31;68034;51.966;5.676;2023-06-10T01:19:54;24.2;44.9
78704;SHT31;68034;51.966;5.676;2023-06-10T01:22:25;24.2;43.9
78704;SHT31;68034;51.966;5.676;2023-06-10T01:24:59;24.2;44.8
78704;SHT31;68034;51.966;5.676;2023-06-10T01:27:33;24.2;44.3
78704;SHT31;68034;51.966;5.676;2023-06-10T01:30:10;24.1;44.6
78704;SHT31;68034;51.966;5.676;2023-06-10T01:32:46;24.1;44.7
78704;SHT31;68034;51.966;5.676;2023-06-10T01:35:17;24.0;44.6
78704;SHT31;68034;51.966;5.676;2023-06-10T01:37:46;24.0;44.7
78704;SHT31;68034;51.966;5.676;2023-06-10T01:40:16;24.0;44.6
78704;SHT31;68034;51.966;5.676;2023-06-10T01:42:46;23.9;44.5
78704;SHT31;68034;51.966;5.676;2023-06-10T01:45:15;23.9;44.5
78704;SHT31;68034;51.966;5.676;2023-06-10T01:47:43;23.8;44.6
78704;SHT31;68034;51.966;5.676;2023-06-10T01:50:12;23.8;44.3
78704;SHT31;68034;51.966;5.676;2023-06-10T01:52:42;23.7;44.5
78704;SHT31;68034;51.966;5.676;2023-06-10T01:55:11;23.7;43.9
78704;SHT31;68034;51.966;5.676;2023-06-10T01:57:40;23.6;43.4
78704;SHT31;68034;51.966;5.676;2023-06-10T02:00:10;23.6;43.2
78704;SHT31;68034;51.966;5.676;2023-06-10T02:02:39;23.5;44.2
78704;SHT31;68034;51.966;5.676;2023-06-10T02:05:08;23.5;44.5
78704;SHT31;68034;51.966;5.676;2023-06-10T02:07:37;23.4;44.6
78704;SHT31;68034;51.966;5.676;2023-06-10T02:10:07;23.4;44.7
78704;SHT31;68034;51.966;5.676;2023-06-10T02:12:36;23.4;44.7
78704;SHT31;68034;51.966;5.676;2023-06-10T02:15:05;23.3;45.2
78704;SHT31;68034;51.966;5.676;2023-06-10T02:17:34;23.3;44.6
78704;SHT31;68034;51.966;5.676;2023-06-10T02:20:07;23.2;44.6
78704;SHT31;68034;51.966;5.676;2023-06-10T02:22:37;23.2;44.8
78704;SHT31;68034;51.966;5.676;2023-06-10T02:25:07;23.2;45.5
78704;SHT31;68034;51.966;5.676;2023-06-10T02:27:36;23.1;45.5
78704;SHT31;68034;51.966;5.676;2023-06-10T02:30:05;23.1;44.5
78704;SHT31;68034;51.966;5.676;2023-06-10T02:32:36;23.1;45.0
78704;SHT31;68034;51.966;5.676;2023-06-10T02:35:06;23.0;45.5
78704;SHT31;68034;51.966;5.676;2023-06-10T02:37:38;23.0;45.5
78704;SHT31;68034;51.966;5.676;2023-06-10T02:40:08;23.0;45.3
78704;SHT31;68034;51.966;5.676;2023-06-10T02:42:37;22.9;45.7
78704;SHT31;68034;51.966;5.676;2023-06-10T02:45:07;22.9;45.0
78704;SHT31;68034;51.966;5.676;2023-06-10T02:47:38;22.9;45.7
78704;SHT31;68034;51.966;5.676;2023-06-10T02:50:07;22.8;44.9
78704;SHT31;68034;51.966;5.676;2023-06-10T02:52:36;22.8;45.5
78704;SHT31;68034;51.966;5.676;2023-06-10T02:55:05;22.8;46.2
78704;SHT31;68034;51.966;5.676;2023-06-10T02:57:34;22.8;46.6
78704;SHT31;68034;51.966;5.676;2023-06-10T03:00:03;22.8;45.8
78704;SHT31;68034;51.966;5.676;2023-06-10T03:02:36;22.7;46.2
78704;SHT31;68034;51.966;5.676;2023-06-10T03:05:05;22.7;46.8
78704;SHT31;68034;51.966;5.676;2023-06-10T03:07:36;22.7;46.3
78704;SHT31;68034;51.966;5.676;2023-06-10T03:10:14;22.7;45.7
78704;SHT31;68034;51.966;5.676;2023-06-10T03:12:46;22.8;46.3
78704;SHT31;68034;51.966;5.676;2023-06-10T03:15:20;22.9;46.9
78704;SHT31;68034;51.966;5.676;2023-06-10T03:17:51;23.0;45.9
78704;SHT31;68034;51.966;5.676;2023-06-10T03:20:19;23.0;45.3
78704;SHT31;68034;51.966;5.676;2023-06-10T03:22:48;23.0;46.0
78704;SHT31;68034;51.966;5.676;2023-06-10T03:25:17;23.0;46.0
78704;SHT31;68034;51.966;5.676;2023-06-10T03:27:47;23.0;45.7
78704;SHT31;68034;51.966;5.676;2023-06-10T03:30:16;22.9;46.0
78704;SHT31;68034;51.966;5.676;2023-06-10T03:32:44;22.9;45.2
78704;SHT31;68034;51.966;5.676;2023-06-10T03:35:15;22.9;45.3
78704;SHT31;68034;51.966;5.676;2023-06-10T03:37:44;22.8;45.4
78704;SHT31;68034;51.966;5.676;2023-06-10T03:40:12;22.8;45.5
78704;SHT31;68034;51.966;5.676;2023-06-10T03:42:41;22.7;45.4
78704;SHT31;68034;51.966;5.676;2023-06-10T03:45:16;22.7;45.4
78704;SHT31;68034;51.966;5.676;2023-06-10T03:47:47;22.7;46.2
78704;SHT31;68034;51.966;5.676;2023-06-10T03:50:17;22.7;45.9
78704;SHT31;68034;51.966;5.676;2023-06-10T03:52:52;22.8;45.7
78704;SHT31;68034;51.966;5.676;2023-06-10T03:55:22;22.8;45.8
78704;SHT31;68034;51.966;5.676;2023-06-10T03:57:57;22.9;45.6
78704;SHT31;68034;51.966;5.676;2023-06-10T04:00:34;23.0;45.5
78704;SHT31;68034;51.966;5.676;2023-06-10T04:03:08;23.0;45.5
78704;SHT31;68034;51.966;5.676;2023-06-10T04:05:57;23.1;45.5
78704;SHT31;68034;51.966;5.676;2023-06-10T04:08:31;23.1;45.3
78704;SHT31;68034;51.966;5.676;2023-06-10T04:11:02;23.2;45.2
78704;SHT31;68034;51.966;5.676;2023-06-10T04:13:30;23.2;45.0
78704;SHT31;68034;51.966;5.676;2023-06-10T04:16:02;23.3;45.0
78704;SHT31;68034;51.966;5.676;2023-06-10T04:18:38;23.3;45.0
78704;SHT31;68034;51.966;5.676;2023-06-10T04:21:10;23.3;44.7
78704;SHT31;68034;51.966;5.676;2023-06-10T04:23:40;23.3;44.5
78704;SHT31;68034;51.966;5.676;2023-06-10T04:26:09;23.3;45.0
78704;SHT31;68034;51.966;5.676;2023-06-10T04:28:38;23.3;44.7
78704;SHT31;68034;51.966;5.676;2023-06-10T04:31:09;23.2;45.1
78704;SHT31;68034;51.966;5.676;2023-06-10T04:33:38;23.0;45.5
78704;SHT31;68034;51.966;5.676;2023-06-10T04:36:09;22.9;45.5
78704;SHT31;68034;51.966;5.676;2023-06-10T04:38:37;22.8;46.2
78704;SHT31;68034;51.966;5.676;2023-06-10T04:41:07;22.7;46.4
78704;SHT31;68034;51.966;5.676;2023-06-10T04:43:35;22.6;46.5
78704;SHT31;68034;51.966;5.676;2023-06-10T04:46:05;22.5;47.2
78704;SHT31;68034;51.966;5.676;2023-06-10T04:48:35;22.5;47.1
78704;SHT31;68034;51.966;5.676;2023-06-10T04:51:04;22.4;47.4
78704;SHT31;68034;51.966;5.676;2023-06-10T04:53:33;22.3;48.2
78704;SHT31;68034;51.966;5.676;2023-06-10T04:56:03;22.2;47.9
78704;SHT31;68034;51.966;5.676;2023-06-10T04:58:31;22.2;48.1
78704;SHT31;68034;51.966;5.676;2023-06-10T05:01:00;22.1;48.5
78704;SHT31;68034;51.966;5.676;2023-06-10T05:03:29;22.1;48.5
78704;SHT31;68034;51.966;5.676;2023-06-10T05:05:58;22.0;48.8
78704;SHT31;68034;51.966;5.676;2023-06-10T05:08:26;22.0;49.0
78704;SHT31;68034;51.966;5.676;2023-06-10T05:10:55;22.0;49.2
78704;SHT31;68034;51.966;5.676;2023-06-10T05:13:25;21.9;49.3
78704;SHT31;68034;51.966;5.676;2023-06-10T05:15:54;22.0;49.8
78704;SHT31;68034;51.966;5.676;2023-06-10T05:18:23;22.0;49.7
78704;SHT31;68034;51.966;5.676;2023-06-10T05:20:53;22.1;49.8
78704;SHT31;68034;51.966;5.676;2023-06-10T05:23:22;22.2;49.2
78704;SHT31;68034;51.966;5.676;2023-06-10T05:25:51;22.2;49.4
78704;SHT31;68034;51.966;5.676;2023-06-10T05:28:19;22.2;49.5
78704;SHT31;68034;51.966;5.676;2023-06-10T05:30:48;22.2;49.3
78704;SHT31;68034;51.966;5.676;2023-06-10T05:33:17;22.2;49.3
78704;SHT31;68034;51.966;5.676;2023-06-10T05:35:46;22.2;49.7
78704;SHT31;68034;51.966;5.676;2023-06-10T05:38:15;22.2;49.8
78704;SHT31;68034;51.966;5.676;2023-06-10T05:40:45;22.2;50.0
78704;SHT31;68034;51.966;5.676;2023-06-10T05:43:15;22.2;50.6
78704;SHT31;68034;51.966;5.676;2023-06-10T05:45:44;22.2;50.3
78704;SHT31;68034;51.966;5.676;2023-06-10T05:48:13;22.2;50.3
78704;SHT31;68034;51.966;5.676;2023-06-10T05:50:42;22.2;50.2
78704;SHT31;68034;51.966;5.676;2023-06-10T05:53:14;22.2;50.3
78704;SHT31;68034;51.966;5.676;2023-06-10T05:55:45;22.2;50.5
78704;SHT31;68034;51.966;5.676;2023-06-10T05:58:14;22.3;50.7
78704;SHT31;68034;51.966;5.676;2023-06-10T06:00:43;22.3;50.9
78704;SHT31;68034;51.966;5.676;2023-06-10T06:03:12;22.3;51.1
78704;SHT31;68034;51.966;5.676;2023-06-10T06:05:41;22.3;51.3
78704;SHT31;68034;51.966;5.676;2023-06-10T06:08:10;22.3;51.5
78704;SHT31;68034;51.966;5.676;2023-06-10T06:10:39;22.4;51.5
78704;SHT31;68034;51.966;5.676;2023-06-10T06:13:08;22.4;51.6
78704;SHT31;68034;51.966;5.676;2023-06-10T06:15:36;22.4;52.7
78704;SHT31;68034;51.966;5.676;2023-06-10T06:18:05;22.5;52.1
78704;SHT31;68034;51.966;5.676;2023-06-10T06:20:34;22.5;51.4
78704;SHT31;68034;51.966;5.676;2023-06-10T06:23:03;22.6;51.4
78704;SHT31;68034;51.966;5.676;2023-06-10T06:25:31;22.6;51.3
78704;SHT31;68034;51.966;5.676;2023-06-10T06:28:00;22.7;51.7
78704;SHT31;68034;51.966;5.676;2023-06-10T06:30:28;22.7;51.5
78704;SHT31;68034;51.966;5.676;2023-06-10T06:32:57;22.7;51.4
78704;SHT31;68034;51.966;5.676;2023-06-10T06:35:25;22.8;51.2
78704;SHT31;68034;51.966;5.676;2023-06-10T06:37:54;22.8;50.7
78704;SHT31;68034;51.966;5.676;2023-06-10T06:40:25;22.9;50.2
78704;SHT31;68034;51.966;5.676;2023-06-10T06:42:53;22.9;50.9
78704;SHT31;68034;51.966;5.676;2023-06-10T06:45:22;23.0;50.0
78704;SHT31;68034;51.966;5.676;2023-06-10T06:47:53;23.0;49.4
78704;SHT31;68034;51.966;5.676;2023-06-10T06:50:22;23.1;49.7
78704;SHT31;68034;51.966;5.676;2023-06-10T06:52:51;23.2;49.3
78704;SHT31;68034;51.966;5.676;2023-06-10T06:55:19;23.3;49.3
78704;SHT31;68034;51.966;5.676;2023-06-10T06:57:48;23.4;49.0
78704;SHT31;68034;51.966;5.676;2023-06-10T07:00:17;23.5;48.1
78704;SHT31;68034;51.966;5.676;2023-06-10T07:02:48;23.5;47.6
78704;SHT31;68034;51.966;5.676;2023-06-10T07:05:16;23.6;47.8
78704;SHT31;68034;51.966;5.676;2023-06-10T07:07:45;23.6;48.8
78704;SHT31;68034;51.966;5.676;2023-06-10T07:10:13;23.6;48.8
78704;SHT31;68034;51.966;5.676;2023-06-10T07:12:43;23.7;48.2
78704;SHT31;68034;51.966;5.676;2023-06-10T07:15:21;23.7;47.9
78704;SHT31;68034;51.966;5.676;2023-06-10T07:17:49;23.9;48.3
78704;SHT31;68034;51.966;5.676;2023-06-10T07:20:18;24.1;47.3
78704;SHT31;68034;51.966;5.676;2023-06-10T07:22:48;24.2;47.3
78704;SHT31;68034;51.966;5.676;2023-06-10T07:25:17;24.3;47.2
78704;SHT31;68034;51.966;5.676;2023-06-10T07:27:45;24.4;47.5
78704;SHT31;68034;51.966;5.676;2023-06-10T07:30:14;24.4;47.9
78704;SHT31;68034;51.966;5.676;2023-06-10T07:32:43;24.5;47.3
78704;SHT31;68034;51.966;5.676;2023-06-10T07:35:16;24.6;48.0
78704;SHT31;68034;51.966;5.676;2023-06-10T07:37:45;24.6;47.5
78704;SHT31;68034;51.966;5.676;2023-06-10T07:40:13;24.7;47.0
78704;SHT31;68034;51.966;5.676;2023-06-10T07:42:42;24.8;46.4
78704;SHT31;68034;51.966;5.676;2023-06-10T07:45:11;24.8;46.5
78704;SHT31;68034;51.966;5.676;2023-06-10T07:47:40;24.9;45.6
78704;SHT31;68034;51.966;5.676;2023-06-10T07:50:09;25.0;45.7
78704;SHT31;68034;51.966;5.676;2023-06-10T07:52:38;25.0;46.6
78704;SHT31;68034;51.966;5.676;2023-06-10T07:55:07;25.1;46.2
78704;SHT31;68034;51.966;5.676;2023-06-10T07:57:36;25.2;45.5
78704;SHT31;68034;51.966;5.676;2023-06-10T08:00:06;25.3;45.4
78704;SHT31;68034;51.966;5.676;2023-06-10T08:02:35;25.3;45.2
78704;SHT31;68034;51.966;5.676;2023-06-10T08:05:04;25.4;45.1
78704;SHT31;68034;51.966;5.676;2023-06-10T08:07:33;25.5;44.9
78704;SHT31;68034;51.966;5.676;2023-06-10T08:10:02;25.5;44.7
78704;SHT31;68034;51.966;5.676;2023-06-10T08:12:32;25.6;44.6
78704;SHT31;68034;51.966;5.676;2023-06-10T08:15:02;25.7;44.8
78704;SHT31;68034;51.966;5.676;2023-06-10T08:17:32;25.7;43.4
78704;SHT31;68034;51.966;5.676;2023-06-10T08:20:01;25.8;43.5
78704;SHT31;68034;51.966;5.676;2023-06-10T08:22:31;25.8;43.7
78704;SHT31;68034;51.966;5.676;2023-06-10T08:25:00;25.9;43.3
78704;SHT31;68034;51.966;5.676;2023-06-10T08:27:28;26.0;43.7
78704;SHT31;68034;51.966;5.676;2023-06-10T08:29:57;26.0;44.3
78704;SHT31;68034;51.966;5.676;2023-06-10T08:32:27;26.1;44.2
78704;SHT31;68034;51.966;5.676;2023-06-10T08:34:55;26.2;43.3
78704;SHT31;68034;51.966;5.676;2023-06-10T08:37:24;26.3;42.3
78704;SHT31;68034;51.966;5.676;2023-06-10T08:39:53;26.4;42.5
78704;SHT31;68034;51.966;5.676;2023-06-10T08:42:24;26.4;43.0
78704;SHT31;68034;51.966;5.676;2023-06-10T08:44:55;26.5;42.2
78704;SHT31;68034;51.966;5.676;2023-06-10T08:47:25;26.6;42.1
78704;SHT31;68034;51.966;5.676;2023-06-10T08:50:02;26.7;42.0
78704;SHT31;68034;51.966;5.676;2023-06-10T08:52:36;26.8;40.9
78704;SHT31;68034;51.966;5.676;2023-06-10T08:55:13;26.8;41.1
78704;SHT31;68034;51.966;5.676;2023-06-10T08:57:44;26.9;41.0
78704;SHT31;68034;51.966;5.676;2023-06-10T09:00:15;27.0;41.1
78704;SHT31;68034;51.966;5.676;2023-06-10T09:02:45;27.1;40.6
78704;SHT31;68034;51.966;5.676;2023-06-10T09:05:18;27.2;41.2
78704;SHT31;68034;51.966;5.676;2023-06-10T09:07:48;27.3;40.7
78704;SHT31;68034;51.966;5.676;2023-06-10T09:10:16;27.4;40.3
78704;SHT31;68034;51.966;5.676;2023-06-10T09:12:45;27.5;39.5
78704;SHT31;68034;51.966;5.676;2023-06-10T09:15:13;27.5;39.1
78704;SHT31;68034;51.966;5.676;2023-06-10T09:17:50;27.6;40.4
78704;SHT31;68034;51.966;5.676;2023-06-10T09:20:22;27.9;39.1
78704;SHT31;68034;51.966;5.676;2023-06-10T09:22:51;28.1;39.2
78704;SHT31;68034;51.966;5.676;2023-06-10T09:25:36;28.2;38.4
78704;SHT31;68034;51.966;5.676;2023-06-10T09:28:14;28.3;38.0
78704;SHT31;68034;51.966;5.676;2023-06-10T09:30:45;28.3;37.7
78704;SHT31;68034;51.966;5.676;2023-06-10T09:33:15;28.4;38.6
78704;SHT31;68034;51.966;5.676;2023-06-10T09:35:48;28.4;38.8
78704;SHT31;68034;51.966;5.676;2023-06-10T09:38:20;28.5;37.6
78704;SHT31;68034;51.966;5.676;2023-06-10T09:40:54;28.5;38.2
78704;SHT31;68034;51.966;5.676;2023-06-10T09:43:23;28.6;37.7
78704;SHT31;68034;51.966;5.676;2023-06-10T09:45:51;28.6;37.9
78704;SHT31;68034;51.966;5.676;2023-06-10T09:48:21;28.7;38.7
78704;SHT31;68034;51.966;5.676;2023-06-10T09:50:51;28.8;37.0
78704;SHT31;68034;51.966;5.676;2023-06-10T09:53:20;28.8;37.6
78704;SHT31;68034;51.966;5.676;2023-06-10T09:55:49;28.9;38.8
78704;SHT31;68034;51.966;5.676;2023-06-10T09:58:17;29.0;36.9
78704;SHT31;68034;51.966;5.676;2023-06-10T10:00:54;29.0;37.5
78704;SHT31;68034;51.966;5.676;2023-06-10T10:03:23;29.1;37.2
78704;SHT31;68034;51.966;5.676;2023-06-10T10:05:57;29.1;37.4
78704;SHT31;68034;51.966;5.676;2023-06-10T10:08:26;29.2;37.6
78704;SHT31;68034;51.966;5.676;2023-06-10T10:10:56;29.3;37.1
78704;SHT31;68034;51.966;5.676;2023-06-10T10:13:28;29.3;37.1
78704;SHT31;68034;51.966;5.676;2023-06-10T10:16:01;29.4;35.7
78704;SHT31;68034;51.966;5.676;2023-06-10T10:18:34;29.5;36.2
78704;SHT31;68034;51.966;5.676;2023-06-10T10:21:07;29.5;35.3
78704;SHT31;68034;51.966;5.676;2023-06-10T10:23:44;29.6;34.5
78704;SHT31;68034;51.966;5.676;2023-06-10T10:26:18;29.7;35.8
78704;SHT31;68034;51.966;5.676;2023-06-10T10:29:03;29.8;36.5
78704;SHT31;68034;51.966;5.676;2023-06-10T10:31:35;29.8;35.5
78704;SHT31;68034;51.966;5.676;2023-06-10T10:34:06;29.9;35.3
78704;SHT31;68034;51.966;5.676;2023-06-10T10:36:39;30.0;35.2
78704;SHT31;68034;51.966;5.676;2023-06-10T10:39:08;30.0;35.3
78704;SHT31;68034;51.966;5.676;2023-06-10T10:41:39;30.1;33.5
78704;SHT31;68034;51.966;5.676;2023-06-10T10:44:09;30.1;31.8
78704;SHT31;68034;51.966;5.676;2023-06-10T10:46:44;30.2;32.8
78704;SHT31;68034;51.966;5.676;2023-06-10T10:49:16;30.2;32.2
78704;SHT31;68034;51.966;5.676;2023-06-10T10:52:00;30.3;32.3
78704;SHT31;68034;51.966;5.676;2023-06-10T10:54:33;30.3;31.0
78704;SHT31;68034;51.966;5.676;2023-06-10T10:57:12;30.3;31.1
78704;SHT31;68034;51.966;5.676;2023-06-10T10:59:45;30.4;32.2
78704;SHT31;68034;51.966;5.676;2023-06-10T11:02:17;30.4;31.5
78704;SHT31;68034;51.966;5.676;2023-06-10T11:04:47;30.5;31.0
78704;SHT31;68034;51.966;5.676;2023-06-10T11:07:20;30.5;31.0
78704;SHT31;68034;51.966;5.676;2023-06-10T11:10:11;30.6;30.7
78704;SHT31;68034;51.966;5.676;2023-06-10T11:12:49;30.6;31.5
78704;SHT31;68034;51.966;5.676;2023-06-10T11:15:20;30.7;29.5
78704;SHT31;68034;51.966;5.676;2023-06-10T11:18:27;30.7;30.6
78704;SHT31;68034;51.966;5.676;2023-06-10T11:21:05;30.9;30.1
78704;SHT31;68034;51.966;5.676;2023-06-10T11:23:41;31.0;29.8
78704;SHT31;68034;51.966;5.676;2023-06-10T11:26:14;31.1;28.3
78704;SHT31;68034;51.966;5.676;2023-06-10T11:29:03;31.1;29.4
78704;SHT31;68034;51.966;5.676;2023-06-10T11:31:33;31.2;28.5
78704;SHT31;68034;51.966;5.676;2023-06-10T11:34:07;31.3;28.5
78704;SHT31;68034;51.966;5.676;2023-06-10T11:36:39;31.3;27.6
78704;SHT31;68034;51.966;5.676;2023-06-10T11:39:12;31.4;28.9
78704;SHT31;68034;51.966;5.676;2023-06-10T11:41:43;31.5;29.8
78704;SHT31;68034;51.966;5.676;2023-06-10T11:44:13;31.5;28.4
78704;SHT31;68034;51.966;5.676;2023-06-10T11:46:42;31.6;28.1
78704;SHT31;68034;51.966;5.676;2023-06-10T11:49:11;31.7;29.5
78704;SHT31;68034;51.966;5.676;2023-06-10T11:51:41;31.8;29.4
78704;SHT31;68034;51.966;5.676;2023-06-10T11:54:15;31.9;27.9
78704;SHT31;68034;51.966;5.676;2023-06-10T11:56:46;32.0;27.9
78704;SHT31;68034;51.966;5.676;2023-06-10T11:59:15;32.1;28.2
78704;SHT31;68034;51.966;5.676;2023-06-10T12:01:45;32.2;28.5
78704;SHT31;68034;51.966;5.676;2023-06-10T12:04:15;32.3;28.0
78704;SHT31;68034;51.966;5.676;2023-06-10T12:06:46;32.4;28.0
78704;SHT31;68034;51.966;5.676;2023-06-10T12:09:21;32.5;27.0
78704;SHT31;68034;51.966;5.676;2023-06-10T12:11:51;32.6;27.5
78704;SHT31;68034;51.966;5.676;2023-06-10T12:14:57;32.7;27.2
78704;SHT31;68034;51.966;5.676;2023-06-10T12:17:38;32.9;26.8
78704;SHT31;68034;51.966;5.676;2023-06-10T12:20:08;33.0;26.4
78704;SHT31;68034;51.966;5.676;2023-06-10T12:22:40;33.1;27.0
78704;SHT31;68034;51.966;5.676;2023-06-10T12:25:10;33.1;26.8
78704;SHT31;68034;51.966;5.676;2023-06-10T12:27:40;33.2;26.1
78704;SHT31;68034;51.966;5.676;2023-06-10T12:30:10;33.3;25.9
78704;SHT31;68034;51.966;5.676;2023-06-10T12:32:41;33.4;26.7
78704;SHT31;68034;51.966;5.676;2023-06-10T12:35:12;33.5;26.4
78704;SHT31;68034;51.966;5.676;2023-06-10T12:37:41;33.6;26.5
78704;SHT31;68034;51.966;5.676;2023-06-10T12:40:11;33.7;26.3
78704;SHT31;68034;51.966;5.676;2023-06-10T12:42:40;33.8;26.1
78704;SHT31;68034;51.966;5.676;2023-06-10T12:45:09;33.9;25.3
78704;SHT31;68034;51.966;5.676;2023-06-10T12:47:39;34.0;26.8
78704;SHT31;68034;51.966;5.676;2023-06-10T12:50:11;34.0;27.0
78704;SHT31;68034;51.966;5.676;2023-06-10T12:52:40;34.1;26.8
78704;SHT31;68034;51.966;5.676;2023-06-10T12:55:09;34.2;24.9
78704;SHT31;68034;51.966;5.676;2023-06-10T12:57:51;34.2;26.6
78704;SHT31;68034;51.966;5.676;2023-06-10T13:00:20;34.3;26.5
78704;SHT31;68034;51.966;5.676;2023-06-10T13:02:52;34.4;26.3
78704;SHT31;68034;51.966;5.676;2023-06-10T13:05:21;34.5;24.7
78704;SHT31;68034;51.966;5.676;2023-06-10T13:07:49;34.6;24.9
78704;SHT31;68034;51.966;5.676;2023-06-10T13:10:18;34.7;24.7
78704;SHT31;68034;51.966;5.676;2023-06-10T13:12:49;34.8;25.1
78704;SHT31;68034;51.966;5.676;2023-06-10T13:15:18;34.8;23.7
78704;SHT31;68034;51.966;5.676;2023-06-10T13:17:47;34.9;24.5
78704;SHT31;68034;51.966;5.676;2023-06-10T13:20:17;35.0;25.1
78704;SHT31;68034;51.966;5.676;2023-06-10T13:22:45;35.3;25.4
78704;SHT31;68034;51.966;5.676;2023-06-10T13:25:16;35.5;24.1
78704;SHT31;68034;51.966;5.676;2023-06-10T13:27:44;35.7;23.6
78704;SHT31;68034;51.966;5.676;2023-06-10T13:30:13;35.8;24.4
78704;SHT31;68034;51.966;5.676;2023-06-10T13:32:42;35.9;23.7
78704;SHT31;68034;51.966;5.676;2023-06-10T13:35:11;36.0;23.3
78704;SHT31;68034;51.966;5.676;2023-06-10T13:37:39;36.0;23.4
78704;SHT31;68034;51.966;5.676;2023-06-10T13:40:08;36.1;23.5
78704;SHT31;68034;51.966;5.676;2023-06-10T13:42:38;36.2;22.8
78704;SHT31;68034;51.966;5.676;2023-06-10T13:45:10;36.2;23.1
78704;SHT31;68034;51.966;5.676;2023-06-10T13:47:39;36.3;22.1
78704;SHT31;68034;51.966;5.676;2023-06-10T13:50:08;36.3;22.4
78704;SHT31;68034;51.966;5.676;2023-06-10T13:52:37;36.4;22.0
78704;SHT31;68034;51.966;5.676;2023-06-10T13:55:06;36.5;22.2
78704;SHT31;68034;51.966;5.676;2023-06-10T13:57:35;36.5;23.4
78704;SHT31;68034;51.966;5.676;2023-06-10T14:00:04;36.6;21.9
78704;SHT31;68034;51.966;5.676;2023-06-10T14:02:33;36.6;22.2
78704;SHT31;68034;51.966;5.676;2023-06-10T14:05:02;36.6;21.8
78704;SHT31;68034;51.966;5.676;2023-06-10T14:07:33;36.6;21.3
78704;SHT31;68034;51.966;5.676;2023-06-10T14:10:03;36.6;20.9
78704;SHT31;68034;51.966;5.676;2023-06-10T14:12:32;36.5;21.3
78704;SHT31;68034;51.966;5.676;2023-06-10T14:15:01;36.4;22.7
78704;SHT31;68034;51.966;5.676;2023-06-10T14:17:30;36.3;21.8
78704;SHT31;68034;51.966;5.676;2023-06-10T14:19:58;36.2;22.9
78704;SHT31;68034;51.966;5.676;2023-06-10T14:22:27;36.1;22.0
78704;SHT31;68034;51.966;5.676;2023-06-10T14:24:55;35.9;21.5
78704;SHT31;68034;51.966;5.676;2023-06-10T14:27:24;35.8;23.3
78704;SHT31;68034;51.966;5.676;2023-06-10T14:29:52;35.7;23.0
78704;SHT31;68034;51.966;5.676;2023-06-10T14:32:21;35.6;22.6
78704;SHT31;68034;51.966;5.676;2023-06-10T14:34:50;35.6;22.5
78704;SHT31;68034;51.966;5.676;2023-06-10T14:37:19;35.6;21.8
78704;SHT31;68034;51.966;5.676;2023-06-10T14:39:50;35.6;22.6
78704;SHT31;68034;51.966;5.676;2023-06-10T14:42:18;35.6;21.7
78704;SHT31;68034;51.966;5.676;2023-06-10T14:44:47;35.5;23.2
78704;SHT31;68034;51.966;5.676;2023-06-10T14:47:15;35.4;22.5
78704;SHT31;68034;51.966;5.676;2023-06-10T14:49:44;35.3;23.4
78704;SHT31;68034;51.966;5.676;2023-06-10T14:52:14;35.2;23.3
78704;SHT31;68034;51.966;5.676;2023-06-10T14:54:43;35.0;23.9
78704;SHT31;68034;51.966;5.676;2023-06-10T14:57:11;34.9;24.3
78704;SHT31;68034;51.966;5.676;2023-06-10T14:59:40;34.8;24.3
78704;SHT31;68034;51.966;5.676;2023-06-10T15:02:08;34.7;24.2
78704;SHT31;68034;51.966;5.676;2023-06-10T15:04:37;34.6;24.2
78704;SHT31;68034;51.966;5.676;2023-06-10T15:07:06;34.5;24.1
78704;SHT31;68034;51.966;5.676;2023-06-10T15:09:34;34.4;25.3
78704;SHT31;68034;51.966;5.676;2023-06-10T15:12:03;34.4;25.0
78704;SHT31;68034;51.966;5.676;2023-06-10T15:14:32;34.3;25.2
78704;SHT31;68034;51.966;5.676;2023-06-10T15:17:00;34.3;24.7
78704;SHT31;68034;51.966;5.676;2023-06-10T15:19:29;34.2;24.7
78704;SHT31;68034;51.966;5.676;2023-06-10T15:21:59;34.1;26.8
78704;SHT31;68034;51.966;5.676;2023-06-10T15:24:28;34.1;24.9
78704;SHT31;68034;51.966;5.676;2023-06-10T15:26:56;34.2;24.7
78704;SHT31;68034;51.966;5.676;2023-06-10T15:29:25;34.2;24.7
78704;SHT31;68034;51.966;5.676;2023-06-10T15:31:55;34.2;25.6
78704;SHT31;68034;51.966;5.676;2023-06-10T15:34:23;34.1;24.9
78704;SHT31;68034;51.966;5.676;2023-06-10T15:36:52;34.1;25.0
78704;SHT31;68034;51.966;5.676;2023-06-10T15:39:20;34.0;25.5
78704;SHT31;68034;51.966;5.676;2023-06-10T15:41:51;34.0;25.7
78704;SHT31;68034;51.966;5.676;2023-06-10T15:44:19;33.9;24.9
78704;SHT31;68034;51.966;5.676;2023-06-10T15:46:48;33.9;25.3
78704;SHT31;68034;51.966;5.676;2023-06-10T15:49:16;33.8;25.2
78704;SHT31;68034;51.966;5.676;2023-06-10T15:51:45;33.8;25.3
78704;SHT31;68034;51.966;5.676;2023-06-10T15:54:13;33.7;25.0
78704;SHT31;68034;51.966;5.676;2023-06-10T15:56:42;33.7;25.4
78704;SHT31;68034;51.966;5.676;2023-06-10T15:59:10;33.6;25.6
78704;SHT31;68034;51.966;5.676;2023-06-10T16:01:39;33.6;26.1
78704;SHT31;68034;51.966;5.676;2023-06-10T16:04:10;33.5;26.7
78704;SHT31;68034;51.966;5.676;2023-06-10T16:06:38;33.4;26.5
78704;SHT31;68034;51.966;5.676;2023-06-10T16:09:07;33.4;26.0
78704;SHT31;68034;51.966;5.676;2023-06-10T16:11:35;33.3;26.1
78704;SHT31;68034;51.966;5.676;2023-06-10T16:14:04;33.3;26.9
78704;SHT31;68034;51.966;5.676;2023-06-10T16:16:32;33.2;27.2
78704;SHT31;68034;51.966;5.676;2023-06-10T16:19:01;33.1;27.7
78704;SHT31;68034;51.966;5.676;2023-06-10T16:21:29;33.1;27.1
78704;SHT31;68034;51.966;5.676;2023-06-10T16:23:58;33.0;27.0